sensor_id;sensor_type;location;lat;lon;timestamp;pressure;altitude;pressure_sealevel;temperature;humidity
52975;BME280;38839;45.186;5.720;2022-10-16T00:00:44;99143.34;;;23.06;52.91
52975;BME280;38839;45.186;5.720;2022-10-16T00:03:10;99138.31;;;23.49;52.20
52975;BME280;38839;45.186;5.720;2022-10-16T00:05:41;99136.56;;;23.48;51.91
52975;BME280;38839;45.186;5.720;2022-10-16T00:08:08;99147.16;;;23.18;52.45
52975;BME280;38839;45.186;5.720;2022-10-16T00:10:34;99138.13;;;23.20;52.48
52975;BME280;38839;45.186;5.720;2022-10-16T00:13:00;99151.00;;;23.44;51.72
52975;BME280;38839;45.186;5.720;2022-10-16T00:15:25;99141.31;;;23.43;51.67
52975;BME280;38839;45.186;5.720;2022-10-16T00:17:51;99142.50;;;23.85;50.37
52975;BME280;38839;45.186;5.720;2022-10-16T00:20:16;99144.75;;;23.45;51.25
52975;BME280;38839;45.186;5.720;2022-10-16T00:22:41;99146.28;;;23.49;51.35
52975;BME280;38839;45.186;5.720;2022-10-16T00:25:07;99152.56;;;23.16;51.96
52975;BME280;38839;45.186;5.720;2022-10-16T00:27:33;99155.69;;;23.07;52.21
52975;BME280;38839;45.186;5.720;2022-10-16T00:29:59;99152.31;;;23.37;51.62
52975;BME280;38839;45.186;5.720;2022-10-16T00:32:24;99153.28;;;23.02;52.31
52975;BME280;38839;45.186;5.720;2022-10-16T00:34:49;99159.31;;;22.73;53.03
52975;BME280;38839;45.186;5.720;2022-10-16T00:37:15;99156.72;;;23.04;52.67
52975;BME280;38839;45.186;5.720;2022-10-16T00:39:40;99159.41;;;23.20;52.02
52975;BME280;38839;45.186;5.720;2022-10-16T00:42:05;99162.03;;;22.19;54.70
52975;BME280;38839;45.186;5.720;2022-10-16T00:49:47;99162.06;;;23.04;52.35
52975;BME280;38839;45.186;5.720;2022-10-16T00:52:14;99161.81;;;23.25;51.72
52975;BME280;38839;45.186;5.720;2022-10-16T00:54:40;99163.44;;;23.27;51.68
52975;BME280;38839;45.186;5.720;2022-10-16T00:57:06;99171.59;;;22.58;53.30
52975;BME280;38839;45.186;5.720;2022-10-16T00:59:37;99180.13;;;22.64;53.35
52975;BME280;38839;45.186;5.720;2022-10-16T01:02:04;99177.28;;;23.01;52.16
52975;BME280;38839;45.186;5.720;2022-10-16T01:04:42;99180.06;;;22.99;52.48
52975;BME280;38839;45.186;5.720;2022-10-16T01:07:20;99178.38;;;23.14;51.78
52975;BME280;38839;45.186;5.720;2022-10-16T01:10:23;99188.69;;;23.20;51.36
52975;BME280;38839;45.186;5.720;2022-10-16T01:12:58;99185.34;;;22.66;52.90
52975;BME280;38839;45.186;5.720;2022-10-16T01:15:54;99194.09;;;22.85;52.50
52975;BME280;38839;45.186;5.720;2022-10-16T01:21:08;99179.34;;;22.96;51.90
52975;BME280;38839;45.186;5.720;2022-10-16T01:31:53;99194.84;;;22.54;52.98
52975;BME280;38839;45.186;5.720;2022-10-16T01:34:37;99183.75;;;22.79;52.43
52975;BME280;38839;45.186;5.720;2022-10-16T01:37:09;99194.84;;;23.05;51.51
52975;BME280;38839;45.186;5.720;2022-10-16T01:39:38;99200.38;;;22.67;52.35
52975;BME280;38839;45.186;5.720;2022-10-16T01:42:20;99188.84;;;22.84;51.95
52975;BME280;38839;45.186;5.720;2022-10-16T01:44:48;99199.41;;;22.85;51.67
52975;BME280;38839;45.186;5.720;2022-10-16T01:47:15;99202.09;;;22.50;52.91
52975;BME280;38839;45.186;5.720;2022-10-16T01:49:43;99205.81;;;22.64;52.45
52975;BME280;38839;45.186;5.720;2022-10-16T01:52:14;99203.25;;;23.13;51.64
52975;BME280;38839;45.186;5.720;2022-10-16T01:54:43;99199.00;;;23.26;50.81
52975;BME280;38839;45.186;5.720;2022-10-16T01:57:10;99199.78;;;23.60;50.40
52975;BME280;38839;45.186;5.720;2022-10-16T01:59:44;99204.88;;;23.49;50.34
52975;BME280;38839;45.186;5.720;2022-10-16T02:02:13;99208.81;;;23.58;50.25
52975;BME280;38839;45.186;5.720;2022-10-16T02:04:47;99202.78;;;23.54;50.24
52975;BME280;38839;45.186;5.720;2022-10-16T02:07:14;99207.97;;;23.73;50.17
52975;BME280;38839;45.186;5.720;2022-10-16T02:09:40;99200.34;;;23.67;50.06
52975;BME280;38839;45.186;5.720;2022-10-16T02:12:36;99197.41;;;23.72;50.14
52975;BME280;38839;45.186;5.720;2022-10-16T02:15:00;99195.78;;;23.85;49.65
52975;BME280;38839;45.186;5.720;2022-10-16T02:17:26;99200.75;;;23.91;49.68
52975;BME280;38839;45.186;5.720;2022-10-16T02:19:54;99204.28;;;23.92;49.64
52975;BME280;38839;45.186;5.720;2022-10-16T02:22:28;99198.69;;;23.96;49.40
52975;BME280;38839;45.186;5.720;2022-10-16T02:25:11;99196.38;;;23.90;49.50
52975;BME280;38839;45.186;5.720;2022-10-16T02:30:29;99204.47;;;23.88;49.54
52975;BME280;38839;45.186;5.720;2022-10-16T02:32:56;99211.25;;;23.94;49.75
52975;BME280;38839;45.186;5.720;2022-10-16T02:35:24;99205.28;;;24.05;49.31
52975;BME280;38839;45.186;5.720;2022-10-16T02:37:50;99202.28;;;23.95;49.08
52975;BME280;38839;45.186;5.720;2022-10-16T02:40:17;99208.06;;;23.72;49.77
52975;BME280;38839;45.186;5.720;2022-10-16T02:42:43;99205.66;;;23.67;49.70
52975;BME280;38839;45.186;5.720;2022-10-16T02:45:10;99213.38;;;23.72;49.70
52975;BME280;38839;45.186;5.720;2022-10-16T02:47:36;99205.38;;;23.56;50.05
52975;BME280;38839;45.186;5.720;2022-10-16T02:50:02;99215.34;;;23.52;50.09
52975;BME280;38839;45.186;5.720;2022-10-16T02:52:28;99208.13;;;23.54;49.98
52975;BME280;38839;45.186;5.720;2022-10-16T02:54:53;99218.63;;;23.57;49.65
52975;BME280;38839;45.186;5.720;2022-10-16T02:57:19;99210.19;;;23.49;50.35
52975;BME280;38839;45.186;5.720;2022-10-16T02:59:44;99214.00;;;23.61;49.85
52975;BME280;38839;45.186;5.720;2022-10-16T03:02:10;99224.97;;;23.70;49.33
52975;BME280;38839;45.186;5.720;2022-10-16T03:04:36;99219.41;;;23.75;49.63
52975;BME280;38839;45.186;5.720;2022-10-16T03:07:01;99217.50;;;23.61;49.85
52975;BME280;38839;45.186;5.720;2022-10-16T03:09:27;99210.22;;;23.65;49.49
52975;BME280;38839;45.186;5.720;2022-10-16T03:11:52;99214.31;;;23.70;49.38
52975;BME280;38839;45.186;5.720;2022-10-16T03:14:18;99217.75;;;23.73;49.41
52975;BME280;38839;45.186;5.720;2022-10-16T03:16:43;99212.69;;;23.68;49.29
52975;BME280;38839;45.186;5.720;2022-10-16T03:19:08;99211.41;;;23.59;49.65
52975;BME280;38839;45.186;5.720;2022-10-16T03:21:34;99209.56;;;23.44;49.98
52975;BME280;38839;45.186;5.720;2022-10-16T03:23:59;99217.16;;;23.67;49.52
52975;BME280;38839;45.186;5.720;2022-10-16T03:26:25;99215.53;;;23.81;49.40
52975;BME280;38839;45.186;5.720;2022-10-16T03:28:50;99219.53;;;23.24;50.59
52975;BME280;38839;45.186;5.720;2022-10-16T03:31:15;99218.16;;;23.33;50.30
52975;BME280;38839;45.186;5.720;2022-10-16T03:33:41;99207.78;;;23.44;49.84
52975;BME280;38839;45.186;5.720;2022-10-16T03:36:07;99229.13;;;23.27;50.12
52975;BME280;38839;45.186;5.720;2022-10-16T03:38:32;99217.84;;;23.06;50.29
52975;BME280;38839;45.186;5.720;2022-10-16T03:40:57;99217.34;;;22.64;51.18
52975;BME280;38839;45.186;5.720;2022-10-16T03:43:23;99219.25;;;22.78;50.97
52975;BME280;38839;45.186;5.720;2022-10-16T03:45:50;99214.88;;;23.12;50.17
52975;BME280;38839;45.186;5.720;2022-10-16T03:48:17;99226.97;;;23.00;50.32
52975;BME280;38839;45.186;5.720;2022-10-16T03:50:42;99229.19;;;23.09;50.33
52975;BME280;38839;45.186;5.720;2022-10-16T03:53:08;99220.03;;;23.31;49.55
52975;BME280;38839;45.186;5.720;2022-10-16T03:55:34;99221.53;;;23.37;49.27
52975;BME280;38839;45.186;5.720;2022-10-16T03:57:59;99223.19;;;22.71;50.56
52975;BME280;38839;45.186;5.720;2022-10-16T04:00:25;99224.59;;;22.43;51.60
52975;BME280;38839;45.186;5.720;2022-10-16T04:02:50;99216.88;;;22.39;51.59
52975;BME280;38839;45.186;5.720;2022-10-16T04:05:16;99221.03;;;22.44;51.92
52975;BME280;38839;45.186;5.720;2022-10-16T04:07:41;99220.06;;;22.28;52.10
52975;BME280;38839;45.186;5.720;2022-10-16T04:10:07;99224.78;;;22.40;52.00
52975;BME280;38839;45.186;5.720;2022-10-16T04:12:33;99221.94;;;22.26;52.41
52975;BME280;38839;45.186;5.720;2022-10-16T04:14:58;99232.00;;;22.19;52.41
52975;BME280;38839;45.186;5.720;2022-10-16T04:17:23;99217.66;;;22.04;53.11
52975;BME280;38839;45.186;5.720;2022-10-16T04:19:49;99219.06;;;22.30;52.24
52975;BME280;38839;45.186;5.720;2022-10-16T04:22:15;99232.56;;;22.26;52.21
52975;BME280;38839;45.186;5.720;2022-10-16T04:24:40;99222.66;;;22.10;52.69
52975;BME280;38839;45.186;5.720;2022-10-16T04:27:05;99220.59;;;21.98;52.93
52975;BME280;38839;45.186;5.720;2022-10-16T04:29:31;99224.69;;;22.05;52.68
52975;BME280;38839;45.186;5.720;2022-10-16T04:31:56;99212.94;;;22.63;51.50
52975;BME280;38839;45.186;5.720;2022-10-16T04:34:22;99218.97;;;22.49;51.49
52975;BME280;38839;45.186;5.720;2022-10-16T04:36:48;99224.69;;;22.42;51.14
52975;BME280;38839;45.186;5.720;2022-10-16T04:39:14;99226.09;;;22.13;52.17
52975;BME280;38839;45.186;5.720;2022-10-16T04:41:39;99230.69;;;22.45;51.32
52975;BME280;38839;45.186;5.720;2022-10-16T04:44:05;99229.59;;;22.49;51.09
52975;BME280;38839;45.186;5.720;2022-10-16T04:46:30;99228.63;;;22.52;51.11
52975;BME280;38839;45.186;5.720;2022-10-16T04:48:56;99231.72;;;22.78;50.73
52975;BME280;38839;45.186;5.720;2022-10-16T04:51:21;99228.00;;;22.64;51.19
52975;BME280;38839;45.186;5.720;2022-10-16T04:53:46;99236.03;;;22.63;50.77
52975;BME280;38839;45.186;5.720;2022-10-16T04:56:12;99232.41;;;22.64;50.84
52975;BME280;38839;45.186;5.720;2022-10-16T04:58:37;99240.09;;;22.87;50.10
52975;BME280;38839;45.186;5.720;2022-10-16T05:01:03;99241.72;;;23.07;49.73
52975;BME280;38839;45.186;5.720;2022-10-16T05:03:28;99234.91;;;22.84;49.88
52975;BME280;38839;45.186;5.720;2022-10-16T05:05:54;99243.00;;;22.48;50.64
52975;BME280;38839;45.186;5.720;2022-10-16T05:08:19;99239.31;;;22.50;51.16
52975;BME280;38839;45.186;5.720;2022-10-16T05:10:45;99241.88;;;22.35;51.51
52975;BME280;38839;45.186;5.720;2022-10-16T05:13:11;99233.28;;;22.10;52.34
52975;BME280;38839;45.186;5.720;2022-10-16T05:15:36;99235.53;;;22.37;51.43
52975;BME280;38839;45.186;5.720;2022-10-16T05:18:02;99236.56;;;22.35;51.37
52975;BME280;38839;45.186;5.720;2022-10-16T05:20:27;99243.75;;;22.67;50.61
52975;BME280;38839;45.186;5.720;2022-10-16T05:22:53;99242.81;;;22.51;50.69
52975;BME280;38839;45.186;5.720;2022-10-16T05:25:18;99249.00;;;22.52;50.98
52975;BME280;38839;45.186;5.720;2022-10-16T05:27:47;99249.16;;;22.48;50.85
52975;BME280;38839;45.186;5.720;2022-10-16T05:30:13;99247.84;;;22.21;51.32
52975;BME280;38839;45.186;5.720;2022-10-16T05:32:38;99243.84;;;22.48;50.84
52975;BME280;38839;45.186;5.720;2022-10-16T05:35:04;99249.56;;;22.58;50.66
52975;BME280;38839;45.186;5.720;2022-10-16T05:37:29;99256.22;;;22.67;50.27
52975;BME280;38839;45.186;5.720;2022-10-16T05:39:55;99246.97;;;22.57;50.77
52975;BME280;38839;45.186;5.720;2022-10-16T05:42:20;99262.47;;;22.48;50.45
52975;BME280;38839;45.186;5.720;2022-10-16T05:44:45;99261.59;;;22.65;50.32
52975;BME280;38839;45.186;5.720;2022-10-16T05:47:12;99260.41;;;22.54;50.41
52975;BME280;38839;45.186;5.720;2022-10-16T05:49:38;99260.00;;;22.26;51.05
52975;BME280;38839;45.186;5.720;2022-10-16T05:52:03;99265.25;;;22.45;50.72
52975;BME280;38839;45.186;5.720;2022-10-16T05:54:29;99268.03;;;22.44;50.94
52975;BME280;38839;45.186;5.720;2022-10-16T05:56:54;99262.22;;;22.17;51.47
52975;BME280;38839;45.186;5.720;2022-10-16T05:59:20;99268.00;;;21.69;52.55
52975;BME280;38839;45.186;5.720;2022-10-16T06:01:45;99263.00;;;21.63;52.67
52975;BME280;38839;45.186;5.720;2022-10-16T06:04:10;99273.41;;;21.68;52.66
52975;BME280;38839;45.186;5.720;2022-10-16T06:06:36;99282.66;;;21.97;51.57
52975;BME280;38839;45.186;5.720;2022-10-16T06:09:02;99277.47;;;21.94;51.84
52975;BME280;38839;45.186;5.720;2022-10-16T06:11:30;99284.22;;;21.63;52.24
52975;BME280;38839;45.186;5.720;2022-10-16T06:13:58;99287.75;;;21.83;51.98
52975;BME280;38839;45.186;5.720;2022-10-16T06:16:25;99288.69;;;21.82;51.59
52975;BME280;38839;45.186;5.720;2022-10-16T06:18:52;99296.81;;;21.79;51.72
52975;BME280;38839;45.186;5.720;2022-10-16T06:21:21;99297.66;;;21.79;51.71
52975;BME280;38839;45.186;5.720;2022-10-16T06:23:47;99297.66;;;21.60;52.29
52975;BME280;38839;45.186;5.720;2022-10-16T06:26:16;99299.22;;;22.02;51.29
52975;BME280;38839;45.186;5.720;2022-10-16T06:28:42;99304.09;;;22.12;50.99
52975;BME280;38839;45.186;5.720;2022-10-16T06:31:08;99309.59;;;22.27;50.64
52975;BME280;38839;45.186;5.720;2022-10-16T06:33:35;99304.22;;;22.46;49.90
52975;BME280;38839;45.186;5.720;2022-10-16T06:36:06;99305.44;;;22.39;50.25
52975;BME280;38839;45.186;5.720;2022-10-16T06:38:33;99312.19;;;22.46;50.19
52975;BME280;38839;45.186;5.720;2022-10-16T06:40:59;99310.56;;;22.25;50.79
52975;BME280;38839;45.186;5.720;2022-10-16T06:43:25;99318.22;;;22.67;49.83
52975;BME280;38839;45.186;5.720;2022-10-16T06:45:54;99313.44;;;22.74;49.41
52975;BME280;38839;45.186;5.720;2022-10-16T06:48:21;99320.50;;;22.75;49.57
52975;BME280;38839;45.186;5.720;2022-10-16T06:53:26;99328.84;;;22.50;50.02
52975;BME280;38839;45.186;5.720;2022-10-16T06:55:52;99329.81;;;22.30;50.37
52975;BME280;38839;45.186;5.720;2022-10-16T06:58:18;99330.03;;;22.62;49.85
52975;BME280;38839;45.186;5.720;2022-10-16T07:00:43;99337.19;;;22.04;50.47
52975;BME280;38839;45.186;5.720;2022-10-16T07:03:09;99340.81;;;21.45;52.35
52975;BME280;38839;45.186;5.720;2022-10-16T07:05:41;99332.53;;;22.09;50.75
52975;BME280;38839;45.186;5.720;2022-10-16T07:08:08;99340.69;;;21.48;51.97
52975;BME280;38839;45.186;5.720;2022-10-16T07:10:34;99337.50;;;21.40;52.64
52975;BME280;38839;45.186;5.720;2022-10-16T07:12:59;99342.41;;;21.08;53.24
52975;BME280;38839;45.186;5.720;2022-10-16T07:15:26;99345.03;;;20.87;53.98
52975;BME280;38839;45.186;5.720;2022-10-16T07:17:51;99348.75;;;21.04;53.50
52975;BME280;38839;45.186;5.720;2022-10-16T07:20:17;99354.81;;;21.48;52.47
52975;BME280;38839;45.186;5.720;2022-10-16T07:22:43;99351.91;;;21.74;51.75
52975;BME280;38839;45.186;5.720;2022-10-16T07:25:08;99364.84;;;21.21;52.91
52975;BME280;38839;45.186;5.720;2022-10-16T07:27:34;99359.13;;;21.51;52.25
52975;BME280;38839;45.186;5.720;2022-10-16T07:30:00;99359.69;;;21.97;51.47
52975;BME280;38839;45.186;5.720;2022-10-16T07:32:25;99361.00;;;21.88;51.46
52975;BME280;38839;45.186;5.720;2022-10-16T07:34:52;99365.16;;;22.32;50.76
52975;BME280;38839;45.186;5.720;2022-10-16T07:37:17;99366.28;;;22.07;51.00
52975;BME280;38839;45.186;5.720;2022-10-16T07:39:43;99370.13;;;21.62;51.94
52975;BME280;38839;45.186;5.720;2022-10-16T07:42:08;99359.38;;;22.41;50.18
52975;BME280;38839;45.186;5.720;2022-10-16T07:44:34;99369.59;;;22.50;50.05
52975;BME280;38839;45.186;5.720;2022-10-16T07:46:59;99365.06;;;22.70;49.70
52975;BME280;38839;45.186;5.720;2022-10-16T07:49:25;99382.06;;;22.67;49.65
52975;BME280;38839;45.186;5.720;2022-10-16T07:51:50;99377.16;;;22.77;49.33
52975;BME280;38839;45.186;5.720;2022-10-16T07:54:16;99377.75;;;22.82;48.94
52975;BME280;38839;45.186;5.720;2022-10-16T07:56:41;99369.34;;;22.92;48.35
52975;BME280;38839;45.186;5.720;2022-10-16T07:59:07;99376.13;;;22.05;50.11
52975;BME280;38839;45.186;5.720;2022-10-16T08:01:32;99385.13;;;21.63;50.45
52975;BME280;38839;45.186;5.720;2022-10-16T08:03:58;99388.13;;;21.95;50.27
52975;BME280;38839;45.186;5.720;2022-10-16T08:06:23;99387.78;;;22.41;49.15
52975;BME280;38839;45.186;5.720;2022-10-16T08:08:49;99385.34;;;22.36;49.31
52975;BME280;38839;45.186;5.720;2022-10-16T08:11:14;99390.44;;;22.95;48.19
52975;BME280;38839;45.186;5.720;2022-10-16T08:13:40;99392.13;;;23.15;47.80
52975;BME280;38839;45.186;5.720;2022-10-16T08:16:07;99384.00;;;23.68;46.61
52975;BME280;38839;45.186;5.720;2022-10-16T08:18:37;99383.94;;;23.70;46.27
52975;BME280;38839;45.186;5.720;2022-10-16T08:21:05;99381.00;;;23.92;45.70
52975;BME280;38839;45.186;5.720;2022-10-16T08:23:31;99370.28;;;24.25;44.73
52975;BME280;38839;45.186;5.720;2022-10-16T08:26:04;99376.81;;;24.36;44.08
52975;BME280;38839;45.186;5.720;2022-10-16T08:28:29;99363.47;;;24.98;42.85
52975;BME280;38839;45.186;5.720;2022-10-16T08:30:55;99377.06;;;25.09;42.08
52975;BME280;38839;45.186;5.720;2022-10-16T08:33:22;99378.38;;;25.32;42.52
52975;BME280;38839;45.186;5.720;2022-10-16T08:35:53;99372.38;;;25.43;41.86
52975;BME280;38839;45.186;5.720;2022-10-16T08:38:20;99375.44;;;25.65;41.65
52975;BME280;38839;45.186;5.720;2022-10-16T08:40:46;99370.22;;;25.49;41.51
52975;BME280;38839;45.186;5.720;2022-10-16T08:46:17;99371.38;;;26.03;40.48
52975;BME280;38839;45.186;5.720;2022-10-16T08:48:54;99371.38;;;26.44;39.92
52975;BME280;38839;45.186;5.720;2022-10-16T08:51:26;99377.91;;;26.40;38.65
52975;BME280;38839;45.186;5.720;2022-10-16T08:54:15;99378.25;;;26.07;39.71
52975;BME280;38839;45.186;5.720;2022-10-16T08:56:42;99376.75;;;26.44;39.29
52975;BME280;38839;45.186;5.720;2022-10-16T08:59:10;99376.63;;;26.04;39.48
52975;BME280;38839;45.186;5.720;2022-10-16T09:01:48;99378.72;;;25.70;40.26
52975;BME280;38839;45.186;5.720;2022-10-16T09:07:13;99385.50;;;25.62;40.77
52975;BME280;38839;45.186;5.720;2022-10-16T09:12:18;99382.56;;;25.95;40.23
52975;BME280;38839;45.186;5.720;2022-10-16T09:15:01;99382.31;;;26.27;39.91
52975;BME280;38839;45.186;5.720;2022-10-16T09:17:44;99387.97;;;26.08;39.89
52975;BME280;38839;45.186;5.720;2022-10-16T09:25:50;99387.03;;;26.65;39.26
52975;BME280;38839;45.186;5.720;2022-10-16T09:28:16;99381.13;;;26.87;39.31
52975;BME280;38839;45.186;5.720;2022-10-16T09:30:42;99391.56;;;26.77;39.87
52975;BME280;38839;45.186;5.720;2022-10-16T09:33:10;99382.00;;;27.00;39.48
52975;BME280;38839;45.186;5.720;2022-10-16T09:35:44;99386.94;;;26.52;40.44
52975;BME280;38839;45.186;5.720;2022-10-16T09:38:32;99382.84;;;26.46;40.42
52975;BME280;38839;45.186;5.720;2022-10-16T09:41:04;99381.03;;;26.74;39.89
52975;BME280;38839;45.186;5.720;2022-10-16T09:43:56;99376.03;;;26.55;40.00
52975;BME280;38839;45.186;5.720;2022-10-16T09:46:32;99380.09;;;26.75;39.30
52975;BME280;38839;45.186;5.720;2022-10-16T09:49:03;99382.56;;;26.78;39.78
52975;BME280;38839;45.186;5.720;2022-10-16T09:51:35;99383.13;;;27.23;38.87
52975;BME280;38839;45.186;5.720;2022-10-16T09:56:32;99384.44;;;27.31;38.90
52975;BME280;38839;45.186;5.720;2022-10-16T09:59:16;99383.78;;;27.40;38.66
52975;BME280;38839;45.186;5.720;2022-10-16T10:01:50;99382.28;;;27.36;38.59
52975;BME280;38839;45.186;5.720;2022-10-16T10:04:17;99368.03;;;27.48;38.38
52975;BME280;38839;45.186;5.720;2022-10-16T10:06:45;99374.16;;;27.50;38.54
52975;BME280;38839;45.186;5.720;2022-10-16T10:14:38;99373.28;;;27.62;37.97
52975;BME280;38839;45.186;5.720;2022-10-16T10:19:38;99366.22;;;27.87;37.50
52975;BME280;38839;45.186;5.720;2022-10-16T10:24:44;99358.28;;;27.98;37.50
52975;BME280;38839;45.186;5.720;2022-10-16T10:27:15;99358.47;;;28.08;37.32
52975;BME280;38839;45.186;5.720;2022-10-16T10:29:51;99349.09;;;28.14;37.24
52975;BME280;38839;45.186;5.720;2022-10-16T10:32:31;99353.56;;;28.02;37.88
52975;BME280;38839;45.186;5.720;2022-10-16T10:35:25;99353.31;;;28.05;37.61
52975;BME280;38839;45.186;5.720;2022-10-16T10:45:55;99333.81;;;28.03;37.98
52975;BME280;38839;45.186;5.720;2022-10-16T10:51:40;99339.13;;;28.77;36.81
52975;BME280;38839;45.186;5.720;2022-10-16T10:54:31;99324.56;;;28.68;37.24
52975;BME280;38839;45.186;5.720;2022-10-16T10:57:01;99329.19;;;28.66;37.17
52975;BME280;38839;45.186;5.720;2022-10-16T10:59:54;99318.31;;;28.43;38.05
52975;BME280;38839;45.186;5.720;2022-10-16T11:02:49;99315.13;;;28.62;37.73
52975;BME280;38839;45.186;5.720;2022-10-16T11:08:18;99306.88;;;29.12;36.73
52975;BME280;38839;45.186;5.720;2022-10-16T11:10:54;99300.00;;;29.08;36.97
52975;BME280;38839;45.186;5.720;2022-10-16T11:16:20;99283.72;;;29.56;35.64
52975;BME280;38839;45.186;5.720;2022-10-16T11:21:31;99289.59;;;29.84;34.89
52975;BME280;38839;45.186;5.720;2022-10-16T11:24:27;99284.22;;;29.95;33.50
52975;BME280;38839;45.186;5.720;2022-10-16T11:26:58;99273.91;;;30.00;33.87
52975;BME280;38839;45.186;5.720;2022-10-16T11:29:30;99278.66;;;30.19;33.56
52975;BME280;38839;45.186;5.720;2022-10-16T11:32:00;99279.25;;;30.34;33.26
52975;BME280;38839;45.186;5.720;2022-10-16T11:34:44;99272.41;;;30.30;32.84
52975;BME280;38839;45.186;5.720;2022-10-16T11:37:18;99277.28;;;30.36;32.63
52975;BME280;38839;45.186;5.720;2022-10-16T11:39:45;99266.84;;;30.43;32.92
52975;BME280;38839;45.186;5.720;2022-10-16T11:42:17;99265.22;;;30.52;32.85
52975;BME280;38839;45.186;5.720;2022-10-16T11:44:55;99261.03;;;30.59;32.40
52975;BME280;38839;45.186;5.720;2022-10-16T11:47:33;99256.63;;;30.58;32.70
52975;BME280;38839;45.186;5.720;2022-10-16T11:50:32;99262.84;;;30.91;32.11
52975;BME280;38839;45.186;5.720;2022-10-16T11:53:04;99273.88;;;30.87;31.62
52975;BME280;38839;45.186;5.720;2022-10-16T11:55:43;99256.31;;;31.14;31.37
52975;BME280;38839;45.186;5.720;2022-10-16T11:58:32;99260.53;;;31.38;30.94
52975;BME280;38839;45.186;5.720;2022-10-16T12:08:46;99259.06;;;31.45;30.21
52975;BME280;38839;45.186;5.720;2022-10-16T12:19:18;99254.13;;;31.29;29.32
52975;BME280;38839;45.186;5.720;2022-10-16T12:21:44;99253.72;;;31.55;28.87
52975;BME280;38839;45.186;5.720;2022-10-16T12:24:41;99260.75;;;31.46;27.88
52975;BME280;38839;45.186;5.720;2022-10-16T12:27:29;99255.63;;;31.43;28.08
52975;BME280;38839;45.186;5.720;2022-10-16T12:30:00;99251.47;;;31.70;28.32
52975;BME280;38839;45.186;5.720;2022-10-16T12:32:33;99253.47;;;31.67;27.44
52975;BME280;38839;45.186;5.720;2022-10-16T12:35:00;99240.06;;;31.56;27.80
52975;BME280;38839;45.186;5.720;2022-10-16T12:37:35;99246.34;;;31.66;27.93
52975;BME280;38839;45.186;5.720;2022-10-16T12:40:28;99240.41;;;31.63;27.16
52975;BME280;38839;45.186;5.720;2022-10-16T12:42:55;99230.91;;;31.78;27.83
52975;BME280;38839;45.186;5.720;2022-10-16T12:45:28;99229.63;;;31.73;26.69
52975;BME280;38839;45.186;5.720;2022-10-16T12:47:54;99234.75;;;31.76;27.38
52975;BME280;38839;45.186;5.720;2022-10-16T12:52:55;99235.31;;;31.89;27.10
52975;BME280;38839;45.186;5.720;2022-10-16T12:55:23;99238.50;;;32.14;26.74
52975;BME280;38839;45.186;5.720;2022-10-16T13:00:32;99235.97;;;32.02;26.72
52975;BME280;38839;45.186;5.720;2022-10-16T13:19:38;99228.88;;;32.21;26.14
52975;BME280;38839;45.186;5.720;2022-10-16T13:25:48;99223.03;;;32.16;26.15
52975;BME280;38839;45.186;5.720;2022-10-16T13:28:21;99224.88;;;32.05;26.58
52975;BME280;38839;45.186;5.720;2022-10-16T13:30:55;99230.72;;;32.11;26.18
52975;BME280;38839;45.186;5.720;2022-10-16T13:33:37;99222.22;;;31.75;25.99
52975;BME280;38839;45.186;5.720;2022-10-16T13:36:05;99224.16;;;32.03;26.02
52975;BME280;38839;45.186;5.720;2022-10-16T13:38:33;99216.94;;;32.04;26.41
52975;BME280;38839;45.186;5.720;2022-10-16T13:41:00;99219.94;;;32.11;25.98
52975;BME280;38839;45.186;5.720;2022-10-16T13:43:41;99222.34;;;32.04;25.73
52975;BME280;38839;45.186;5.720;2022-10-16T13:46:16;99227.69;;;31.94;24.98
52975;BME280;38839;45.186;5.720;2022-10-16T13:48:42;99223.00;;;31.96;25.44
52975;BME280;38839;45.186;5.720;2022-10-16T13:51:15;99217.38;;;32.19;25.30
52975;BME280;38839;45.186;5.720;2022-10-16T13:53:41;99221.19;;;32.26;25.17
52975;BME280;38839;45.186;5.720;2022-10-16T13:56:11;99224.84;;;31.96;25.49
52975;BME280;38839;45.186;5.720;2022-10-16T13:58:37;99227.16;;;32.00;25.60
52975;BME280;38839;45.186;5.720;2022-10-16T14:01:05;99224.47;;;32.20;25.57
52975;BME280;38839;45.186;5.720;2022-10-16T14:03:31;99226.28;;;32.10;25.41
52975;BME280;38839;45.186;5.720;2022-10-16T14:06:02;99221.28;;;31.95;25.27
52975;BME280;38839;45.186;5.720;2022-10-16T14:08:29;99218.00;;;31.82;25.51
52975;BME280;38839;45.186;5.720;2022-10-16T14:11:04;99223.56;;;31.90;25.16
52975;BME280;38839;45.186;5.720;2022-10-16T14:13:42;99228.41;;;31.96;25.44
52975;BME280;38839;45.186;5.720;2022-10-16T14:16:17;99223.25;;;31.74;25.12
52975;BME280;38839;45.186;5.720;2022-10-16T14:18:46;99220.84;;;31.90;25.03
52975;BME280;38839;45.186;5.720;2022-10-16T14:21:15;99227.75;;;32.04;25.51
52975;BME280;38839;45.186;5.720;2022-10-16T14:23:42;99228.59;;;32.04;25.35
52975;BME280;38839;45.186;5.720;2022-10-16T14:28:33;99235.41;;;32.18;25.14
52975;BME280;38839;45.186;5.720;2022-10-16T14:31:00;99236.53;;;32.16;25.28
52975;BME280;38839;45.186;5.720;2022-10-16T14:36:01;99235.09;;;32.12;24.63
52975;BME280;38839;45.186;5.720;2022-10-16T14:38:27;99238.19;;;31.97;24.92
52975;BME280;38839;45.186;5.720;2022-10-16T14:40:57;99240.72;;;31.89;25.45
52975;BME280;38839;45.186;5.720;2022-10-16T14:43:31;99236.09;;;32.01;25.31
52975;BME280;38839;45.186;5.720;2022-10-16T14:45:57;99243.88;;;31.94;25.43
52975;BME280;38839;45.186;5.720;2022-10-16T14:48:24;99247.28;;;31.96;25.42
52975;BME280;38839;45.186;5.720;2022-10-16T14:50:49;99244.94;;;31.72;25.79
52975;BME280;38839;45.186;5.720;2022-10-16T14:53:15;99245.84;;;31.92;25.54
52975;BME280;38839;45.186;5.720;2022-10-16T14:55:41;99251.69;;;31.87;25.46
52975;BME280;38839;45.186;5.720;2022-10-16T14:58:27;99250.38;;;31.82;24.95
52975;BME280;38839;45.186;5.720;2022-10-16T15:00:55;99247.13;;;31.88;25.42
52975;BME280;38839;45.186;5.720;2022-10-16T15:03:21;99251.66;;;31.78;25.38
52975;BME280;38839;45.186;5.720;2022-10-16T15:05:46;99254.03;;;31.71;25.84